sensor_id;sensor_type;location;lat;lon;timestamp;P1;durP1;ratioP1;P2;durP2;ratioP2
32236;SDS011;18726;44.732;10.550;2023-08-06T00:01:29;2.33;;;2.15;;
32236;SDS011;18726;44.732;10.550;2023-08-06T00:04:32;2.47;;;2.08;;
32236;SDS011;18726;44.732;10.550;2023-08-06T00:07:36;1.70;;;1.60;;
32236;SDS011;18726;44.732;10.550;2023-08-06T00:10:40;2.67;;;1.90;;
32236;SDS011;18726;44.732;10.550;2023-08-06T00:13:44;2.67;;;2.25;;
32236;SDS011;18726;44.732;10.550;2023-08-06T00:16:48;2.13;;;1.92;;
32236;SDS011;18726;44.732;10.550;2023-08-06T00:19:52;1.90;;;1.80;;
32236;SDS011;18726;44.732;10.550;2023-08-06T00:22:56;5.07;;;2.55;;
32236;SDS011;18726;44.732;10.550;2023-08-06T00:26:00;2.40;;;2.20;;
32236;SDS011;18726;44.732;10.550;2023-08-06T00:29:03;2.78;;;2.55;;
32236;SDS011;18726;44.732;10.550;2023-08-06T00:32:07;5.72;;;2.83;;
32236;SDS011;18726;44.732;10.550;2023-08-06T00:35:11;2.70;;;2.50;;
32236;SDS011;18726;44.732;10.550;2023-08-06T00:38:17;2.70;;;2.50;;
32236;SDS011;18726;44.732;10.550;2023-08-06T00:41:21;2.92;;;2.65;;
32236;SDS011;18726;44.732;10.550;2023-08-06T00:44:25;2.22;;;2.03;;
32236;SDS011;18726;44.732;10.550;2023-08-06T00:47:29;2.10;;;2.00;;
32236;SDS011;18726;44.732;10.550;2023-08-06T00:50:33;2.78;;;2.55;;
32236;SDS011;18726;44.732;10.550;2023-08-06T00:53:37;2.20;;;2.00;;
32236;SDS011;18726;44.732;10.550;2023-08-06T00:56:41;3.00;;;2.78;;
32236;SDS011;18726;44.732;10.550;2023-08-06T00:59:46;3.47;;;2.90;;
32236;SDS011;18726;44.732;10.550;2023-08-06T01:02:50;2.78;;;2.58;;
32236;SDS011;18726;44.732;10.550;2023-08-06T01:05:55;2.50;;;2.30;;
32236;SDS011;18726;44.732;10.550;2023-08-06T01:09:06;2.70;;;2.50;;
32236;SDS011;18726;44.732;10.550;2023-08-06T01:12:28;2.33;;;2.17;;
32236;SDS011;18726;44.732;10.550;2023-08-06T01:18:47;5.72;;;2.90;;
32236;SDS011;18726;44.732;10.550;2023-08-06T01:21:52;2.40;;;2.20;;
32236;SDS011;18726;44.732;10.550;2023-08-06T01:24:56;2.80;;;2.35;;
32236;SDS011;18726;44.732;10.550;2023-08-06T01:28:03;4.43;;;3.00;;
32236;SDS011;18726;44.732;10.550;2023-08-06T01:31:14;3.03;;;2.83;;
32236;SDS011;18726;44.732;10.550;2023-08-06T01:34:23;3.92;;;3.22;;
32236;SDS011;18726;44.732;10.550;2023-08-06T01:37:29;3.13;;;2.92;;
32236;SDS011;18726;44.732;10.550;2023-08-06T01:40:33;2.95;;;2.75;;
32236;SDS011;18726;44.732;10.550;2023-08-06T01:43:38;3.17;;;2.97;;
32236;SDS011;18726;44.732;10.550;2023-08-06T01:46:41;8.60;;;2.90;;
32236;SDS011;18726;44.732;10.550;2023-08-06T01:49:45;3.65;;;3.35;;
32236;SDS011;18726;44.732;10.550;2023-08-06T01:52:48;4.32;;;3.08;;
32236;SDS011;18726;44.732;10.550;2023-08-06T01:55:51;3.67;;;3.38;;
32236;SDS011;18726;44.732;10.550;2023-08-06T01:58:56;4.57;;;3.40;;
32236;SDS011;18726;44.732;10.550;2023-08-06T02:02:00;5.80;;;3.25;;
32236;SDS011;18726;44.732;10.550;2023-08-06T02:05:04;3.10;;;2.83;;
32236;SDS011;18726;44.732;10.550;2023-08-06T02:08:09;10.13;;;2.65;;
32236;SDS011;18726;44.732;10.550;2023-08-06T02:11:13;4.10;;;2.20;;
32236;SDS011;18726;44.732;10.550;2023-08-06T02:14:16;4.13;;;2.58;;
32236;SDS011;18726;44.732;10.550;2023-08-06T02:17:19;2.80;;;2.40;;
32236;SDS011;18726;44.732;10.550;2023-08-06T02:20:23;5.13;;;2.08;;
32236;SDS011;18726;44.732;10.550;2023-08-06T02:23:27;3.97;;;2.40;;
32236;SDS011;18726;44.732;10.550;2023-08-06T02:26:31;6.68;;;2.75;;
32236;SDS011;18726;44.732;10.550;2023-08-06T02:29:34;10.25;;;2.55;;
32236;SDS011;18726;44.732;10.550;2023-08-06T02:32:38;3.35;;;2.20;;
32236;SDS011;18726;44.732;10.550;2023-08-06T02:35:42;4.70;;;2.40;;
32236;SDS011;18726;44.732;10.550;2023-08-06T02:38:46;2.45;;;2.20;;
32236;SDS011;18726;44.732;10.550;2023-08-06T02:41:50;4.95;;;2.53;;
32236;SDS011;18726;44.732;10.550;2023-08-06T02:44:54;3.33;;;2.20;;
32236;SDS011;18726;44.732;10.550;2023-08-06T02:47:58;2.55;;;2.30;;
32236;SDS011;18726;44.732;10.550;2023-08-06T02:51:02;2.50;;;2.28;;
32236;SDS011;18726;44.732;10.550;2023-08-06T02:54:08;5.32;;;2.50;;
32236;SDS011;18726;44.732;10.550;2023-08-06T02:57:13;1.92;;;1.83;;
32236;SDS011;18726;44.732;10.550;2023-08-06T03:00:17;2.10;;;2.00;;
32236;SDS011;18726;44.732;10.550;2023-08-06T03:03:20;2.65;;;1.75;;
32236;SDS011;18726;44.732;10.550;2023-08-06T03:06:31;1.60;;;1.50;;
32236;SDS011;18726;44.732;10.550;2023-08-06T03:09:36;4.43;;;2.25;;
32236;SDS011;18726;44.732;10.550;2023-08-06T03:12:40;1.95;;;1.85;;
32236;SDS011;18726;44.732;10.550;2023-08-06T03:16:05;1.92;;;1.83;;
32236;SDS011;18726;44.732;10.550;2023-08-06T03:19:08;2.40;;;2.20;;
32236;SDS011;18726;44.732;10.550;2023-08-06T03:22:12;2.20;;;2.00;;
32236;SDS011;18726;44.732;10.550;2023-08-06T03:25:16;2.08;;;1.90;;
32236;SDS011;18726;44.732;10.550;2023-08-06T03:28:24;2.75;;;2.20;;
32236;SDS011;18726;44.732;10.550;2023-08-06T03:31:29;1.90;;;1.80;;
32236;SDS011;18726;44.732;10.550;2023-08-06T03:34:32;2.45;;;2.25;;
32236;SDS011;18726;44.732;10.550;2023-08-06T03:37:35;2.70;;;2.50;;
32236;SDS011;18726;44.732;10.550;2023-08-06T03:40:39;2.92;;;2.17;;
32236;SDS011;18726;44.732;10.550;2023-08-06T03:43:42;3.05;;;2.50;;
32236;SDS011;18726;44.732;10.550;2023-08-06T03:57:09;2.67;;;2.47;;
32236;SDS011;18726;44.732;10.550;2023-08-06T04:00:13;3.67;;;2.22;;
32236;SDS011;18726;44.732;10.550;2023-08-06T04:03:20;2.97;;;2.72;;
32236;SDS011;18726;44.732;10.550;2023-08-06T04:06:24;3.72;;;3.38;;
32236;SDS011;18726;44.732;10.550;2023-08-06T04:09:28;2.97;;;2.78;;
32236;SDS011;18726;44.732;10.550;2023-08-06T04:12:32;2.65;;;2.42;;
32236;SDS011;18726;44.732;10.550;2023-08-06T04:15:40;3.90;;;3.30;;
32236;SDS011;18726;44.732;10.550;2023-08-06T04:18:43;4.18;;;3.72;;
32236;SDS011;18726;44.732;10.550;2023-08-06T04:21:50;3.55;;;3.35;;
32236;SDS011;18726;44.732;10.550;2023-08-06T04:24:54;3.72;;;3.30;;
32236;SDS011;18726;44.732;10.550;2023-08-06T04:27:57;5.30;;;3.80;;
32236;SDS011;18726;44.732;10.550;2023-08-06T04:31:01;8.25;;;3.50;;
32236;SDS011;18726;44.732;10.550;2023-08-06T04:34:07;4.40;;;2.80;;
32236;SDS011;18726;44.732;10.550;2023-08-06T04:37:13;3.13;;;2.63;;
32236;SDS011;18726;44.732;10.550;2023-08-06T04:40:17;4.50;;;3.70;;
32236;SDS011;18726;44.732;10.550;2023-08-06T04:43:21;4.43;;;3.88;;
32236;SDS011;18726;44.732;10.550;2023-08-06T04:46:27;4.32;;;3.55;;
32236;SDS011;18726;44.732;10.550;2023-08-06T04:49:30;5.60;;;3.80;;
32236;SDS011;18726;44.732;10.550;2023-08-06T04:52:34;10.27;;;3.92;;
32236;SDS011;18726;44.732;10.550;2023-08-06T04:55:37;3.85;;;3.55;;
32236;SDS011;18726;44.732;10.550;2023-08-06T04:58:41;4.47;;;3.92;;
32236;SDS011;18726;44.732;10.550;2023-08-06T05:01:45;4.47;;;3.47;;
32236;SDS011;18726;44.732;10.550;2023-08-06T05:04:50;4.07;;;3.17;;
32236;SDS011;18726;44.732;10.550;2023-08-06T05:07:54;4.18;;;3.33;;
32236;SDS011;18726;44.732;10.550;2023-08-06T05:10:59;4.75;;;2.80;;
32236;SDS011;18726;44.732;10.550;2023-08-06T05:14:03;4.38;;;2.22;;
32236;SDS011;18726;44.732;10.550;2023-08-06T05:17:06;2.28;;;2.08;;
32236;SDS011;18726;44.732;10.550;2023-08-06T05:20:10;2.80;;;1.70;;
32236;SDS011;18726;44.732;10.550;2023-08-06T05:31:47;2.63;;;1.45;;
32236;SDS011;18726;44.732;10.550;2023-08-06T05:34:51;2.40;;;1.70;;
32236;SDS011;18726;44.732;10.550;2023-08-06T05:37:54;2.15;;;1.50;;
32236;SDS011;18726;44.732;10.550;2023-08-06T05:40:58;2.25;;;1.38;;
32236;SDS011;18726;44.732;10.550;2023-08-06T05:44:02;1.20;;;1.10;;
32236;SDS011;18726;44.732;10.550;2023-08-06T05:47:05;1.83;;;1.20;;
32236;SDS011;18726;44.732;10.550;2023-08-06T05:50:08;2.13;;;0.98;;
32236;SDS011;18726;44.732;10.550;2023-08-06T05:53:12;5.05;;;0.98;;
32236;SDS011;18726;44.732;10.550;2023-08-06T05:56:16;2.17;;;0.77;;
32236;SDS011;18726;44.732;10.550;2023-08-06T05:59:19;1.00;;;0.90;;
32236;SDS011;18726;44.732;10.550;2023-08-06T06:02:23;3.08;;;1.80;;
32236;SDS011;18726;44.732;10.550;2023-08-06T06:05:27;2.00;;;1.80;;
32236;SDS011;18726;44.732;10.550;2023-08-06T06:08:31;7.18;;;1.70;;
32236;SDS011;18726;44.732;10.550;2023-08-06T06:11:35;2.25;;;1.90;;
32236;SDS011;18726;44.732;10.550;2023-08-06T06:14:38;7.72;;;1.70;;
32236;SDS011;18726;44.732;10.550;2023-08-06T06:17:41;1.85;;;1.55;;
32236;SDS011;18726;44.732;10.550;2023-08-06T06:20:45;5.38;;;2.55;;
32236;SDS011;18726;44.732;10.550;2023-08-06T06:23:49;4.90;;;3.53;;
32236;SDS011;18726;44.732;10.550;2023-08-06T06:26:54;9.77;;;3.28;;
32236;SDS011;18726;44.732;10.550;2023-08-06T06:29:58;3.00;;;2.30;;
32236;SDS011;18726;44.732;10.550;2023-08-06T06:33:01;5.70;;;2.63;;
32236;SDS011;18726;44.732;10.550;2023-08-06T06:36:05;2.75;;;1.73;;
32236;SDS011;18726;44.732;10.550;2023-08-06T06:39:10;6.15;;;2.28;;
32236;SDS011;18726;44.732;10.550;2023-08-06T06:42:13;4.28;;;2.80;;
32236;SDS011;18726;44.732;10.550;2023-08-06T06:45:21;2.90;;;2.60;;
32236;SDS011;18726;44.732;10.550;2023-08-06T06:48:26;2.88;;;2.58;;
32236;SDS011;18726;44.732;10.550;2023-08-06T06:51:31;3.58;;;2.30;;
32236;SDS011;18726;44.732;10.550;2023-08-06T06:54:37;4.50;;;1.98;;
32236;SDS011;18726;44.732;10.550;2023-08-06T06:57:41;3.00;;;1.83;;
32236;SDS011;18726;44.732;10.550;2023-08-06T07:00:44;2.38;;;1.05;;
32236;SDS011;18726;44.732;10.550;2023-08-06T07:03:49;3.25;;;1.38;;
32236;SDS011;18726;44.732;10.550;2023-08-06T07:14:43;4.45;;;1.30;;
32236;SDS011;18726;44.732;10.550;2023-08-06T07:17:47;1.13;;;0.73;;
32236;SDS011;18726;44.732;10.550;2023-08-06T07:20:51;2.40;;;0.85;;
32236;SDS011;18726;44.732;10.550;2023-08-06T07:23:55;3.95;;;1.70;;
32236;SDS011;18726;44.732;10.550;2023-08-06T07:26:59;1.50;;;1.08;;
32236;SDS011;18726;44.732;10.550;2023-08-06T07:30:03;2.08;;;1.17;;
32236;SDS011;18726;44.732;10.550;2023-08-06T07:33:08;2.15;;;0.95;;
32236;SDS011;18726;44.732;10.550;2023-08-06T07:36:13;3.28;;;1.80;;
32236;SDS011;18726;44.732;10.550;2023-08-06T07:39:17;1.52;;;1.08;;
32236;SDS011;18726;44.732;10.550;2023-08-06T07:42:21;4.20;;;1.02;;
32236;SDS011;18726;44.732;10.550;2023-08-06T07:45:25;1.67;;;0.98;;
32236;SDS011;18726;44.732;10.550;2023-08-06T07:48:30;3.00;;;1.10;;
32236;SDS011;18726;44.732;10.550;2023-08-06T07:51:35;1.75;;;1.40;;
32236;SDS011;18726;44.732;10.550;2023-08-06T07:54:39;2.78;;;1.00;;
32236;SDS011;18726;44.732;10.550;2023-08-06T07:57:43;1.75;;;1.20;;
32236;SDS011;18726;44.732;10.550;2023-08-06T08:00:47;6.30;;;1.05;;
32236;SDS011;18726;44.732;10.550;2023-08-06T08:03:51;1.75;;;1.15;;
32236;SDS011;18726;44.732;10.550;2023-08-06T08:07:00;4.78;;;1.10;;
32236;SDS011;18726;44.732;10.550;2023-08-06T08:10:04;2.33;;;1.25;;
32236;SDS011;18726;44.732;10.550;2023-08-06T08:13:08;1.33;;;0.95;;
32236;SDS011;18726;44.732;10.550;2023-08-06T08:16:12;4.43;;;1.55;;
32236;SDS011;18726;44.732;10.550;2023-08-06T08:19:16;1.45;;;1.15;;
32236;SDS011;18726;44.732;10.550;2023-08-06T08:22:20;3.00;;;1.20;;
32236;SDS011;18726;44.732;10.550;2023-08-06T08:25:24;5.05;;;1.23;;
32236;SDS011;18726;44.732;10.550;2023-08-06T08:28:27;1.95;;;1.17;;
32236;SDS011;18726;44.732;10.550;2023-08-06T08:31:31;4.80;;;1.50;;
32236;SDS011;18726;44.732;10.550;2023-08-06T08:34:42;1.77;;;1.10;;
32236;SDS011;18726;44.732;10.550;2023-08-06T08:37:45;3.33;;;1.38;;
32236;SDS011;18726;44.732;10.550;2023-08-06T08:40:50;5.68;;;1.67;;
32236;SDS011;18726;44.732;10.550;2023-08-06T08:43:58;2.28;;;1.48;;
32236;SDS011;18726;44.732;10.550;2023-08-06T08:47:03;4.18;;;1.70;;
32236;SDS011;18726;44.732;10.550;2023-08-06T08:50:08;3.20;;;1.50;;
32236;SDS011;18726;44.732;10.550;2023-08-06T08:53:13;3.05;;;1.67;;
32236;SDS011;18726;44.732;10.550;2023-08-06T08:56:18;3.47;;;1.35;;
32236;SDS011;18726;44.732;10.550;2023-08-06T08:59:22;2.88;;;1.20;;
32236;SDS011;18726;44.732;10.550;2023-08-06T09:02:28;2.95;;;1.35;;
32236;SDS011;18726;44.732;10.550;2023-08-06T09:05:34;4.15;;;1.45;;
32236;SDS011;18726;44.732;10.550;2023-08-06T09:08:43;2.55;;;1.50;;
32236;SDS011;18726;44.732;10.550;2023-08-06T09:11:54;2.88;;;1.85;;
32236;SDS011;18726;44.732;10.550;2023-08-06T09:15:03;3.88;;;1.50;;
32236;SDS011;18726;44.732;10.550;2023-08-06T09:18:10;4.57;;;1.75;;
32236;SDS011;18726;44.732;10.550;2023-08-06T09:21:15;6.57;;;4.35;;
32236;SDS011;18726;44.732;10.550;2023-08-06T09:24:22;5.10;;;1.48;;
32236;SDS011;18726;44.732;10.550;2023-08-06T09:27:26;2.72;;;1.25;;
32236;SDS011;18726;44.732;10.550;2023-08-06T09:30:32;3.38;;;1.63;;
32236;SDS011;18726;44.732;10.550;2023-08-06T09:33:37;2.72;;;1.17;;
32236;SDS011;18726;44.732;10.550;2023-08-06T09:36:42;2.50;;;1.50;;
32236;SDS011;18726;44.732;10.550;2023-08-06T09:39:46;2.95;;;1.50;;
32236;SDS011;18726;44.732;10.550;2023-08-06T09:42:50;2.15;;;1.13;;
32236;SDS011;18726;44.732;10.550;2023-08-06T09:45:54;2.70;;;1.40;;
32236;SDS011;18726;44.732;10.550;2023-08-06T09:48:58;2.15;;;1.25;;
32236;SDS011;18726;44.732;10.550;2023-08-06T09:52:02;1.80;;;1.00;;
32236;SDS011;18726;44.732;10.550;2023-08-06T09:55:05;3.15;;;1.35;;
32236;SDS011;18726;44.732;10.550;2023-08-06T09:58:09;2.80;;;1.63;;
32236;SDS011;18726;44.732;10.550;2023-08-06T10:01:13;2.33;;;0.95;;
32236;SDS011;18726;44.732;10.550;2023-08-06T10:04:19;0.77;;;0.75;;
32236;SDS011;18726;44.732;10.550;2023-08-06T10:07:23;1.83;;;1.13;;
32236;SDS011;18726;44.732;10.550;2023-08-06T10:10:28;4.55;;;1.20;;
32236;SDS011;18726;44.732;10.550;2023-08-06T10:13:33;4.82;;;1.30;;
32236;SDS011;18726;44.732;10.550;2023-08-06T10:16:38;1.80;;;1.35;;
32236;SDS011;18726;44.732;10.550;2023-08-06T10:19:43;2.38;;;1.02;;
32236;SDS011;18726;44.732;10.550;2023-08-06T10:22:59;4.28;;;1.20;;
32236;SDS011;18726;44.732;10.550;2023-08-06T10:26:07;1.48;;;1.10;;
32236;SDS011;18726;44.732;10.550;2023-08-06T10:32:47;1.65;;;1.23;;
32236;SDS011;18726;44.732;10.550;2023-08-06T10:35:52;1.63;;;1.33;;
32236;SDS011;18726;44.732;10.550;2023-08-06T10:39:04;1.85;;;1.33;;
32236;SDS011;18726;44.732;10.550;2023-08-06T10:42:18;3.35;;;1.55;;
32236;SDS011;18726;44.732;10.550;2023-08-06T10:45:24;1.30;;;1.20;;
32236;SDS011;18726;44.732;10.550;2023-08-06T10:48:33;1.40;;;1.10;;
32236;SDS011;18726;44.732;10.550;2023-08-06T10:51:42;1.70;;;1.17;;
32236;SDS011;18726;44.732;10.550;2023-08-06T10:54:46;1.25;;;1.00;;
32236;SDS011;18726;44.732;10.550;2023-08-06T10:57:50;5.72;;;1.45;;
32236;SDS011;18726;44.732;10.550;2023-08-06T11:00:55;2.30;;;1.30;;
32236;SDS011;18726;44.732;10.550;2023-08-06T11:04:01;2.20;;;1.23;;
32236;SDS011;18726;44.732;10.550;2023-08-06T11:07:06;2.35;;;1.25;;
32236;SDS011;18726;44.732;10.550;2023-08-06T11:10:11;2.17;;;1.13;;
32236;SDS011;18726;44.732;10.550;2023-08-06T11:13:16;3.05;;;1.30;;
32236;SDS011;18726;44.732;10.550;2023-08-06T11:16:22;3.55;;;1.65;;
32236;SDS011;18726;44.732;10.550;2023-08-06T11:19:28;3.42;;;2.40;;
32236;SDS011;18726;44.732;10.550;2023-08-06T11:22:32;2.20;;;2.00;;
32236;SDS011;18726;44.732;10.550;2023-08-06T11:25:36;1.92;;;1.20;;
32236;SDS011;18726;44.732;10.550;2023-08-06T11:28:41;2.15;;;1.20;;
32236;SDS011;18726;44.732;10.550;2023-08-06T11:31:44;1.63;;;1.23;;
32236;SDS011;18726;44.732;10.550;2023-08-06T11:34:47;1.65;;;1.20;;
32236;SDS011;18726;44.732;10.550;2023-08-06T11:37:51;1.17;;;0.90;;
32236;SDS011;18726;44.732;10.550;2023-08-06T11:40:55;10.32;;;1.40;;
32236;SDS011;18726;44.732;10.550;2023-08-06T11:43:59;1.80;;;1.35;;
32236;SDS011;18726;44.732;10.550;2023-08-06T11:47:03;1.63;;;1.17;;
32236;SDS011;18726;44.732;10.550;2023-08-06T11:50:09;1.83;;;1.20;;
32236;SDS011;18726;44.732;10.550;2023-08-06T11:53:27;1.75;;;1.42;;
32236;SDS011;18726;44.732;10.550;2023-08-06T11:56:31;1.38;;;1.10;;
32236;SDS011;18726;44.732;10.550;2023-08-06T11:59:36;2.97;;;1.42;;
32236;SDS011;18726;44.732;10.550;2023-08-06T12:02:41;1.60;;;1.38;;
32236;SDS011;18726;44.732;10.550;2023-08-06T12:05:47;2.67;;;1.88;;
32236;SDS011;18726;44.732;10.550;2023-08-06T12:08:51;3.42;;;1.83;;
32236;SDS011;18726;44.732;10.550;2023-08-06T12:11:54;1.70;;;1.20;;
32236;SDS011;18726;44.732;10.550;2023-08-06T12:14:58;2.45;;;1.58;;
32236;SDS011;18726;44.732;10.550;2023-08-06T12:18:02;1.67;;;1.25;;
32236;SDS011;18726;44.732;10.550;2023-08-06T12:21:06;1.70;;;1.52;;
32236;SDS011;18726;44.732;10.550;2023-08-06T12:24:09;5.85;;;1.48;;
32236;SDS011;18726;44.732;10.550;2023-08-06T12:27:13;1.65;;;1.38;;
32236;SDS011;18726;44.732;10.550;2023-08-06T12:30:19;1.88;;;1.40;;
32236;SDS011;18726;44.732;10.550;2023-08-06T12:33:22;2.10;;;1.10;;
32236;SDS011;18726;44.732;10.550;2023-08-06T12:36:26;1.55;;;1.23;;
32236;SDS011;18726;44.732;10.550;2023-08-06T12:39:30;1.75;;;1.40;;
32236;SDS011;18726;44.732;10.550;2023-08-06T12:42:34;1.55;;;1.30;;
32236;SDS011;18726;44.732;10.550;2023-08-06T12:45:38;7.30;;;1.52;;
32236;SDS011;18726;44.732;10.550;2023-08-06T12:48:42;2.65;;;1.25;;
32236;SDS011;18726;44.732;10.550;2023-08-06T12:51:45;2.25;;;1.30;;
32236;SDS011;18726;44.732;10.550;2023-08-06T12:54:48;1.45;;;1.35;;
32236;SDS011;18726;44.732;10.550;2023-08-06T12:57:52;1.48;;;1.38;;
32236;SDS011;18726;44.732;10.550;2023-08-06T13:00:56;2.92;;;1.48;;
32236;SDS011;18726;44.732;10.550;2023-08-06T13:04:01;4.15;;;1.35;;
32236;SDS011;18726;44.732;10.550;2023-08-06T13:07:05;4.55;;;1.13;;
32236;SDS011;18726;44.732;10.550;2023-08-06T13:10:09;2.63;;;1.70;;
32236;SDS011;18726;44.732;10.550;2023-08-06T13:13:13;3.65;;;1.63;;
32236;SDS011;18726;44.732;10.550;2023-08-06T13:16:17;3.47;;;1.15;;
32236;SDS011;18726;44.732;10.550;2023-08-06T13:19:20;1.50;;;1.40;;
32236;SDS011;18726;44.732;10.550;2023-08-06T13:22:24;3.80;;;1.30;;
32236;SDS011;18726;44.732;10.550;2023-08-06T13:25:27;2.85;;;1.40;;
32236;SDS011;18726;44.732;10.550;2023-08-06T13:28:32;1.70;;;1.60;;
32236;SDS011;18726;44.732;10.550;2023-08-06T13:31:36;2.42;;;1.50;;
32236;SDS011;18726;44.732;10.550;2023-08-06T13:34:40;1.40;;;1.30;;
32236;SDS011;18726;44.732;10.550;2023-08-06T13:37:43;3.10;;;1.40;;
32236;SDS011;18726;44.732;10.550;2023-08-06T13:40:47;2.65;;;1.50;;
32236;SDS011;18726;44.732;10.550;2023-08-06T13:43:51;1.70;;;1.60;;
32236;SDS011;18726;44.732;10.550;2023-08-06T13:46:55;2.00;;;1.45;;
32236;SDS011;18726;44.732;10.550;2023-08-06T13:49:59;2.47;;;1.63;;
32236;SDS011;18726;44.732;10.550;2023-08-06T13:53:03;2.03;;;1.50;;
32236;SDS011;18726;44.732;10.550;2023-08-06T13:56:07;1.50;;;1.40;;
32236;SDS011;18726;44.732;10.550;2023-08-06T13:59:13;1.50;;;1.40;;
32236;SDS011;18726;44.732;10.550;2023-08-06T14:02:17;2.50;;;1.48;;
32236;SDS011;18726;44.732;10.550;2023-08-06T14:05:21;1.80;;;1.40;;
32236;SDS011;18726;44.732;10.550;2023-08-06T14:08:25;2.00;;;1.30;;
32236;SDS011;18726;44.732;10.550;2023-08-06T14:11:30;3.55;;;1.58;;
32236;SDS011;18726;44.732;10.550;2023-08-06T14:14:34;2.42;;;1.23;;
32236;SDS011;18726;44.732;10.550;2023-08-06T14:17:38;2.28;;;1.50;;
32236;SDS011;18726;44.732;10.550;2023-08-06T14:20:42;1.80;;;1.40;;
32236;SDS011;18726;44.732;10.550;2023-08-06T14:23:46;1.95;;;1.73;;
32236;SDS011;18726;44.732;10.550;2023-08-06T14:26:49;1.67;;;1.48;;
32236;SDS011;18726;44.732;10.550;2023-08-06T14:29:53;1.75;;;1.60;;
32236;SDS011;18726;44.732;10.550;2023-08-06T14:32:57;2.17;;;1.55;;
32236;SDS011;18726;44.732;10.550;2023-08-06T14:36:03;7.35;;;1.92;;
32236;SDS011;18726;44.732;10.550;2023-08-06T14:39:07;3.13;;;1.50;;
32236;SDS011;18726;44.732;10.550;2023-08-06T14:42:11;2.40;;;1.50;;
32236;SDS011;18726;44.732;10.550;2023-08-06T14:45:14;2.05;;;1.67;;
32236;SDS011;18726;44.732;10.550;2023-08-06T14:48:18;1.65;;;1.30;;
32236;SDS011;18726;44.732;10.550;2023-08-06T14:51:22;6.13;;;1.42;;
32236;SDS011;18726;44.732;10.550;2023-08-06T14:54:26;3.95;;;1.67;;
32236;SDS011;18726;44.732;10.550;2023-08-06T14:57:30;2.28;;;1.60;;
32236;SDS011;18726;44.732;10.550;2023-08-06T15:00:34;1.60;;;1.40;;
32236;SDS011;18726;44.732;10.550;2023-08-06T15:03:39;4.28;;;1.35;;
32236;SDS011;18726;44.732;10.550;2023-08-06T15:06:46;2.30;;;1.80;;
32236;SDS011;18726;44.732;10.550;2023-08-06T15:10:00;2.10;;;1.50;;
32236;SDS011;18726;44.732;10.550;2023-08-06T15:13:06;6.20;;;1.80;;
32236;SDS011;18726;44.732;10.550;2023-08-06T15:16:10;1.45;;;1.30;;
32236;SDS011;18726;44.732;10.550;2023-08-06T15:19:13;1.90;;;1.50;;
32236;SDS011;18726;44.732;10.550;2023-08-06T15:22:17;1.75;;;1.42;;
32236;SDS011;18726;44.732;10.550;2023-08-06T15:25:21;1.88;;;1.50;;
32236;SDS011;18726;44.732;10.550;2023-08-06T15:28:25;2.90;;;1.70;;
32236;SDS011;18726;44.732;10.550;2023-08-06T15:31:36;2.83;;;1.70;;
32236;SDS011;18726;44.732;10.550;2023-08-06T15:34:41;1.20;;;1.10;;
32236;SDS011;18726;44.732;10.550;2023-08-06T15:37:45;2.50;;;1.40;;
32236;SDS011;18726;44.732;10.550;2023-08-06T15:40:49;3.28;;;1.42;;
32236;SDS011;18726;44.732;10.550;2023-08-06T15:43:55;3.55;;;1.60;;
32236;SDS011;18726;44.732;10.550;2023-08-06T15:46:59;4.00;;;1.48;;
32236;SDS011;18726;44.732;10.550;2023-08-06T15:50:03;1.58;;;1.48;;
32236;SDS011;18726;44.732;10.550;2023-08-06T15:53:08;2.95;;;1.55;;
32236;SDS011;18726;44.732;10.550;2023-08-06T15:56:13;1.70;;;1.30;;
32236;SDS011;18726;44.732;10.550;2023-08-06T15:59:26;3.88;;;1.65;;
32236;SDS011;18726;44.732;10.550;2023-08-06T16:02:44;1.80;;;1.33;;
32236;SDS011;18726;44.732;10.550;2023-08-06T16:05:49;2.35;;;1.55;;
32236;SDS011;18726;44.732;10.550;2023-08-06T16:08:52;3.38;;;1.80;;
32236;SDS011;18726;44.732;10.550;2023-08-06T16:11:56;2.20;;;1.60;;
32236;SDS011;18726;44.732;10.550;2023-08-06T16:15:00;2.38;;;1.60;;
32236;SDS011;18726;44.732;10.550;2023-08-06T16:18:06;1.67;;;1.55;;
32236;SDS011;18726;44.732;10.550;2023-08-06T16:21:10;1.88;;;1.50;;
32236;SDS011;18726;44.732;10.550;2023-08-06T16:24:15;1.63;;;1.50;;
32236;SDS011;18726;44.732;10.550;2023-08-06T16:27:18;2.10;;;1.60;;
32236;SDS011;18726;44.732;10.550;2023-08-06T16:30:23;2.13;;;1.50;;
32236;SDS011;18726;44.732;10.550;2023-08-06T16:33:27;1.60;;;1.40;;
32236;SDS011;18726;44.732;10.550;2023-08-06T16:36:32;2.25;;;1.60;;
32236;SDS011;18726;44.732;10.550;2023-08-06T16:39:35;2.35;;;1.70;;
32236;SDS011;18726;44.732;10.550;2023-08-06T16:42:40;1.50;;;1.25;;
32236;SDS011;18726;44.732;10.550;2023-08-06T16:45:43;1.60;;;1.50;;
32236;SDS011;18726;44.732;10.550;2023-08-06T16:48:47;1.77;;;1.60;;
32236;SDS011;18726;44.732;10.550;2023-08-06T16:51:51;2.00;;;1.80;;
32236;SDS011;18726;44.732;10.550;2023-08-06T16:54:55;2.35;;;1.60;;
32236;SDS011;18726;44.732;10.550;2023-08-06T16:57:59;2.03;;;1.70;;
32236;SDS011;18726;44.732;10.550;2023-08-06T17:01:03;1.38;;;1.27;;
32236;SDS011;18726;44.732;10.550;2023-08-06T17:04:08;1.52;;;1.40;;
32236;SDS011;18726;44.732;10.550;2023-08-06T17:07:12;1.63;;;1.17;;
32236;SDS011;18726;44.732;10.550;2023-08-06T17:10:16;2.00;;;1.52;;
32236;SDS011;18726;44.732;10.550;2023-08-06T17:13:24;5.07;;;1.42;;
32236;SDS011;18726;44.732;10.550;2023-08-06T17:16:28;1.48;;;1.30;;
32236;SDS011;18726;44.732;10.550;2023-08-06T17:19:33;3.53;;;1.48;;
32236;SDS011;18726;44.732;10.550;2023-08-06T17:22:37;3.22;;;1.90;;
32236;SDS011;18726;44.732;10.550;2023-08-06T17:25:43;3.25;;;1.73;;
32236;SDS011;18726;44.732;10.550;2023-08-06T17:28:47;3.05;;;1.60;;
32236;SDS011;18726;44.732;10.550;2023-08-06T17:31:52;1.85;;;1.48;;
32236;SDS011;18726;44.732;10.550;2023-08-06T17:34:57;6.88;;;1.77;;
32236;SDS011;18726;44.732;10.550;2023-08-06T17:38:01;5.88;;;1.58;;
32236;SDS011;18726;44.732;10.550;2023-08-06T17:41:05;2.78;;;1.90;;
32236;SDS011;18726;44.732;10.550;2023-08-06T17:44:09;2.40;;;1.70;;
32236;SDS011;18726;44.732;10.550;2023-08-06T17:47:14;2.03;;;1.63;;
32236;SDS011;18726;44.732;10.550;2023-08-06T17:50:17;2.17;;;1.98;;
32236;SDS011;18726;44.732;10.550;2023-08-06T17:53:21;2.42;;;1.98;;
32236;SDS011;18726;44.732;10.550;2023-08-06T17:56:26;2.60;;;2.00;;
32236;SDS011;18726;44.732;10.550;2023-08-06T17:59:30;1.98;;;1.65;;
32236;SDS011;18726;44.732;10.550;2023-08-06T18:02:34;2.00;;;1.58;;
32236;SDS011;18726;44.732;10.550;2023-08-06T18:05:38;1.70;;;1.60;;
32236;SDS011;18726;44.732;10.550;2023-08-06T18:08:42;2.92;;;1.40;;
32236;SDS011;18726;44.732;10.550;2023-08-06T18:11:46;1.70;;;1.50;;
32236;SDS011;18726;44.732;10.550;2023-08-06T18:14:49;2.40;;;1.80;;
32236;SDS011;18726;44.732;10.550;2023-08-06T18:17:53;3.70;;;1.60;;
32236;SDS011;18726;44.732;10.550;2023-08-06T18:20:57;4.88;;;2.25;;
32236;SDS011;18726;44.732;10.550;2023-08-06T18:24:01;1.80;;;1.70;;
32236;SDS011;18726;44.732;10.550;2023-08-06T18:27:05;2.25;;;1.65;;
32236;SDS011;18726;44.732;10.550;2023-08-06T18:30:09;2.13;;;1.70;;
32236;SDS011;18726;44.732;10.550;2023-08-06T18:33:14;3.08;;;1.67;;
32236;SDS011;18726;44.732;10.550;2023-08-06T18:36:17;1.92;;;1.60;;
32236;SDS011;18726;44.732;10.550;2023-08-06T18:39:21;4.38;;;1.95;;
32236;SDS011;18726;44.732;10.550;2023-08-06T18:42:25;6.40;;;4.25;;
32236;SDS011;18726;44.732;10.550;2023-08-06T18:45:30;6.95;;;6.00;;
32236;SDS011;18726;44.732;10.550;2023-08-06T18:48:41;5.30;;;4.78;;